Kenvil, New Jersey
Current Conditions -  °F | °C
As of 3:45 PM on Sunday 21 Dec 2014 (Local Time) from KMMU Reporting Station
Overcast Overcast  
Wind Chill: 31°   Ceiling: 1900
Heat Index: 36°   Visibility: 10mi
Dew Point: 27°   Wind: 6mph
Humidity: 70%   Direction: 360°N
Pressure: 30.3"   Gusts: NA
Location:  40.88°N, 74.62°W
Report Text: KMMU 212045Z 36005KT 10SM OVC019 02/M03 A3030
Loading
Personal Weather Stations






























Interactive Weather Map New forecast layout! Learn more

10-Day Weather Forecast

Advertisements
Track Severe Weather on mobile